ウィニペグ の空港の天気 - METARとTAF

ウィニペグ国際空港 ( CYWG / YWG ) - カナダ マニトバ州ウィニペグ
飛行場実況気象(Metar)
観測時間05/30 11:00 CDT (05/30 16:00 UTC)
風向・風速西南西 5m/s
視程10km以上
天気現象
なし
気温13℃
湿度35%
気圧1029hPa
METARCYWG 301600Z 24009KT 190V270 15SM SKC 13/M02 A3036 RMK SLP290
過去の天気等 Google飛行場航空写真 Wunderground天気予報

過去48時間のMETAR

飛行場予報(TAF)
発表時間: 5/30 06:38 CDT (5/30 11:38 UTC)
予報対象時間: 30日7時 CDT ~ 31日7時 CDT
風向・風速西 3m/s
視程10km以上
なし
30日7時 CDT ~ 30日9時 CDT に徐々に
風向・風速南西 3m/s
30日12時 CDT ~ 30日14時 CDT に徐々に
風向・風速西 6m/s
30日20時 CDT から
風向・風速南西 4m/s
視程10km以上
なし
TAF CYWG 301138Z 3012/3112 27005KT P6SM SKC
BECMG 3012/3014 23005KT
BECMG 3017/3019 27012KT
FM310100 22008KT P6SM SKC RMK NXT FCST BY 301800Z